createdAt,value
2023-03-29T00:01:35.264Z,2.05
2023-03-29T00:04:06.606Z,2.00
2023-03-29T00:06:33.832Z,2.37
2023-03-29T00:09:01.931Z,2.03
2023-03-29T00:11:28.893Z,1.90
2023-03-29T00:13:56.028Z,2.47
2023-03-29T00:16:22.920Z,2.05
2023-03-29T00:18:49.789Z,1.97
2023-03-29T00:21:16.619Z,2.38
2023-03-29T00:23:43.381Z,2.05
2023-03-29T00:26:10.904Z,2.53
2023-03-29T00:28:37.842Z,2.15
2023-03-29T00:31:06.857Z,2.10
2023-03-29T00:33:33.813Z,2.47
2023-03-29T00:36:01.903Z,2.40
2023-03-29T00:38:28.999Z,2.30
2023-03-29T00:40:56.003Z,2.40
2023-03-29T00:43:22.983Z,2.37
2023-03-29T00:45:49.795Z,2.30
2023-03-29T00:48:24.504Z,2.05
2023-03-29T00:50:57.292Z,2.30
2023-03-29T00:53:28.467Z,2.00
2023-03-29T00:56:01.725Z,2.37
2023-03-29T00:58:57.324Z,2.42
2023-03-29T01:01:34.265Z,2.17
2023-03-29T01:04:04.380Z,2.33
2023-03-29T01:06:31.540Z,2.72
2023-03-29T01:09:01.331Z,2.67
2023-03-29T01:11:31.052Z,2.28
2023-03-29T01:14:06.109Z,2.60
2023-03-29T01:16:33.502Z,1.90
2023-03-29T01:19:00.488Z,2.65
2023-03-29T01:21:29.387Z,2.30
2023-03-29T01:24:18.257Z,2.50
2023-03-29T01:26:53.924Z,2.40
2023-03-29T01:29:20.656Z,2.90
2023-03-29T01:31:51.258Z,2.53
2023-03-29T01:34:35.486Z,2.10
2023-03-29T01:37:09.370Z,2.60
2023-03-29T01:39:36.226Z,2.45
2023-03-29T01:42:16.241Z,2.20
2023-03-29T01:45:21.952Z,2.70
2023-03-29T01:48:01.160Z,2.20
2023-03-29T01:51:10.245Z,2.58
2023-03-29T01:53:44.369Z,2.28
2023-03-29T01:56:13.323Z,2.38
2023-03-29T01:58:42.811Z,2.42
2023-03-29T02:01:10.551Z,2.37
2023-03-29T02:03:42.662Z,2.33
2023-03-29T02:06:13.067Z,2.38
2023-03-29T02:08:40.825Z,2.25
2023-03-29T02:11:07.926Z,2.45
2023-03-29T02:13:35.913Z,2.20
2023-03-29T02:16:12.342Z,2.50
2023-03-29T02:18:40.504Z,2.22
2023-03-29T02:21:07.786Z,1.95
2023-03-29T02:23:38.924Z,2.13
2023-03-29T02:26:09.028Z,2.20
2023-03-29T02:28:36.256Z,2.70
2023-03-29T02:31:08.233Z,2.38
2023-03-29T02:33:58.848Z,2.17
2023-03-29T02:36:32.275Z,2.53
2023-03-29T02:38:59.459Z,2.22
2023-03-29T02:41:26.453Z,1.98
2023-03-29T02:43:53.206Z,2.17
2023-03-29T02:46:20.063Z,2.35
2023-03-29T02:48:47.047Z,2.10
2023-03-29T02:51:19.829Z,2.38
2023-03-29T02:54:00.245Z,1.73
2023-03-29T02:56:27.108Z,2.13
2023-03-29T02:58:53.890Z,2.72
2023-03-29T03:01:20.807Z,2.20
2023-03-29T03:03:48.299Z,2.25
2023-03-29T03:06:15.348Z,2.20
2023-03-29T03:08:42.263Z,2.13
2023-03-29T03:11:09.032Z,1.85
2023-03-29T03:13:35.889Z,2.00
2023-03-29T03:16:03.296Z,2.00
2023-03-29T03:18:30.162Z,2.13
2023-03-29T03:21:02.083Z,2.13
2023-03-29T03:23:29.635Z,2.30
2023-03-29T03:25:56.697Z,2.20
2023-03-29T03:28:24.393Z,2.10
2023-03-29T03:30:51.230Z,1.95
2023-03-29T03:33:19.279Z,2.08
2023-03-29T03:35:46.620Z,2.05
2023-03-29T03:38:13.644Z,2.10
2023-03-29T03:40:40.442Z,1.75
2023-03-29T03:43:07.225Z,2.05
2023-03-29T03:45:34.433Z,2.25
2023-03-29T03:48:01.269Z,1.85
2023-03-29T03:50:28.185Z,1.85
2023-03-29T03:52:54.984Z,1.80
2023-03-29T03:55:22.147Z,2.03
2023-03-29T03:57:48.982Z,2.38
2023-03-29T04:00:23.005Z,1.80
2023-03-29T04:02:49.961Z,1.85
2023-03-29T04:05:17.290Z,1.92
2023-03-29T04:07:44.114Z,1.95
2023-03-29T04:10:11.231Z,2.15
2023-03-29T04:12:38.243Z,2.00
2023-03-29T04:15:05.607Z,2.30
2023-03-29T04:17:32.487Z,2.22
2023-03-29T04:20:01.429Z,1.88
2023-03-29T04:22:28.437Z,2.00
2023-03-29T04:24:55.426Z,1.92
2023-03-29T04:27:22.275Z,2.15
2023-03-29T04:29:49.118Z,1.50
2023-03-29T04:32:15.929Z,1.73
2023-03-29T04:34:42.749Z,1.83
2023-03-29T04:37:10.752Z,1.83
2023-03-29T04:39:38.005Z,2.38
2023-03-29T04:42:05.490Z,2.35
2023-03-29T04:44:35.248Z,2.20
2023-03-29T04:47:02.228Z,2.92
2023-03-29T04:49:29.125Z,2.38
2023-03-29T04:51:56.021Z,2.05
2023-03-29T04:54:22.975Z,2.30
2023-03-29T04:56:49.861Z,2.38
2023-03-29T04:59:16.892Z,2.30
2023-03-29T05:01:43.758Z,2.40
2023-03-29T05:04:12.662Z,2.78
2023-03-29T05:06:40.124Z,2.30
2023-03-29T05:09:07.391Z,2.50
2023-03-29T05:11:34.313Z,2.30
2023-03-29T05:14:07.325Z,2.40
2023-03-29T05:16:34.727Z,2.35
2023-03-29T05:19:01.584Z,2.40
2023-03-29T05:21:31.231Z,2.70
2023-03-29T05:23:58.174Z,2.28
2023-03-29T05:26:25.569Z,2.55
2023-03-29T05:28:52.459Z,2.35
2023-03-29T05:31:20.020Z,2.83
2023-03-29T05:33:50.899Z,2.55
2023-03-29T05:36:19.246Z,2.63
2023-03-29T05:38:46.889Z,2.72
2023-03-29T05:41:14.554Z,2.90
2023-03-29T05:43:41.952Z,3.03
2023-03-29T05:46:09.164Z,2.88
2023-03-29T05:48:36.457Z,2.90
2023-03-29T05:51:03.594Z,3.33
2023-03-29T05:53:30.696Z,3.40
2023-03-29T05:55:57.465Z,2.97
2023-03-29T05:58:26.676Z,3.47
2023-03-29T06:00:53.585Z,3.00
2023-03-29T06:03:25.614Z,3.03
2023-03-29T06:05:57.782Z,3.13
2023-03-29T06:08:26.186Z,2.97
2023-03-29T06:11:00.665Z,3.03
2023-03-29T06:13:29.349Z,2.72
2023-03-29T06:15:56.144Z,3.15
2023-03-29T06:18:23.543Z,2.50
2023-03-29T06:20:53.593Z,3.10
2023-03-29T06:23:20.613Z,3.08
2023-03-29T06:25:47.854Z,2.88
2023-03-29T06:28:14.845Z,3.00
2023-03-29T06:30:42.128Z,3.30
2023-03-29T06:33:09.700Z,3.47
2023-03-29T06:35:37.225Z,3.08
2023-03-29T06:38:04.872Z,2.80
2023-03-29T06:40:31.716Z,3.05
2023-03-29T06:42:59.400Z,2.85
2023-03-29T06:45:29.315Z,3.10
2023-03-29T06:47:56.887Z,2.95
2023-03-29T06:50:23.917Z,3.50
2023-03-29T06:52:50.728Z,3.08
2023-03-29T06:55:18.551Z,2.80
2023-03-29T06:57:45.374Z,2.63
2023-03-29T07:00:19.337Z,3.40
2023-03-29T07:02:46.624Z,3.33
2023-03-29T07:05:13.874Z,3.25
2023-03-29T07:07:57.530Z,2.65
2023-03-29T07:10:32.313Z,2.90
2023-03-29T07:13:02.453Z,3.05
2023-03-29T07:15:29.549Z,2.67
2023-03-29T07:17:57.666Z,2.88
2023-03-29T07:20:25.821Z,2.75
2023-03-29T07:22:53.047Z,2.83
2023-03-29T07:25:21.526Z,2.95
2023-03-29T07:27:48.468Z,3.03
2023-03-29T07:30:21.175Z,2.70
2023-03-29T07:32:48.155Z,2.85
2023-03-29T07:35:15.306Z,3.08
2023-03-29T07:37:44.497Z,2.90
2023-03-29T07:40:16.480Z,2.30
2023-03-29T07:42:44.371Z,2.30
2023-03-29T07:45:11.836Z,2.50
2023-03-29T07:47:38.884Z,2.00
2023-03-29T07:50:07.550Z,2.92
2023-03-29T07:52:35.837Z,2.00
2023-03-29T07:55:02.617Z,1.75
2023-03-29T07:57:29.534Z,2.65
2023-03-29T07:59:56.441Z,2.13
2023-03-29T08:02:23.422Z,2.60
2023-03-29T08:04:50.315Z,1.87
2023-03-29T08:07:20.042Z,2.20
2023-03-29T08:09:47.003Z,2.65
2023-03-29T08:12:13.853Z,2.50
2023-03-29T08:14:40.622Z,2.83
2023-03-29T08:17:07.623Z,2.50
2023-03-29T08:19:34.528Z,2.38
2023-03-29T08:22:01.389Z,2.58
2023-03-29T08:24:28.416Z,2.40
2023-03-29T08:26:55.537Z,2.72
2023-03-29T08:29:22.530Z,2.37
2023-03-29T08:31:49.403Z,2.30
2023-03-29T08:34:16.311Z,2.63
2023-03-29T08:36:43.151Z,2.70
2023-03-29T08:39:10.323Z,3.25
2023-03-29T08:42:26.658Z,2.60
2023-03-29T08:45:12.066Z,3.10
2023-03-29T08:48:00.938Z,2.60
2023-03-29T08:50:34.409Z,2.20
2023-03-29T08:53:04.745Z,2.75
2023-03-29T08:55:45.449Z,2.00
2023-03-29T08:58:19.094Z,1.88
2023-03-29T09:00:59.382Z,2.47
2023-03-29T09:03:54.100Z,2.63
2023-03-29T09:06:22.162Z,2.38
2023-03-29T09:08:50.790Z,1.90
2023-03-29T09:11:23.723Z,2.10
2023-03-29T09:14:29.498Z,1.98
2023-03-29T09:17:33.564Z,2.28
2023-03-29T09:20:18.943Z,2.08
2023-03-29T09:22:58.046Z,1.87
2023-03-29T09:25:26.194Z,2.08
2023-03-29T09:28:19.272Z,1.80
2023-03-29T09:31:00.144Z,2.35
2023-03-29T09:33:31.657Z,2.17
2023-03-29T09:36:02.662Z,2.60
2023-03-29T09:38:31.115Z,2.42
2023-03-29T09:41:06.065Z,2.15
2023-03-29T09:43:36.229Z,2.20
2023-03-29T09:46:07.122Z,2.80
2023-03-29T09:48:37.877Z,2.43
2023-03-29T09:51:05.625Z,2.65
2023-03-29T09:53:32.650Z,2.50
2023-03-29T09:55:59.732Z,2.25
2023-03-29T09:58:27.689Z,2.08
2023-03-29T10:00:58.353Z,2.00
2023-03-29T10:03:27.525Z,1.95
2023-03-29T10:05:55.718Z,1.98
2023-03-29T10:08:30.060Z,2.20
2023-03-29T10:10:57.749Z,2.65
2023-03-29T10:13:32.382Z,2.00
2023-03-29T10:16:05.959Z,2.30
2023-03-29T10:18:33.333Z,2.50
2023-03-29T10:21:02.816Z,2.17
2023-03-29T10:23:34.128Z,2.05
2023-03-29T10:26:04.313Z,1.90
2023-03-29T10:28:31.427Z,2.50
2023-03-29T10:30:59.959Z,2.80
2023-03-29T10:33:34.172Z,2.00
2023-03-29T10:36:01.095Z,2.22
2023-03-29T10:38:28.766Z,1.60
2023-03-29T10:41:02.896Z,2.25
2023-03-29T10:43:36.152Z,2.13
2023-03-29T10:46:13.443Z,1.73
2023-03-29T10:48:40.469Z,1.88
2023-03-29T10:51:07.678Z,1.57
2023-03-29T10:53:37.778Z,2.25
2023-03-29T10:56:08.249Z,2.08
2023-03-29T10:58:56.768Z,1.80
2023-03-29T11:01:48.344Z,1.83
2023-03-29T11:04:20.939Z,1.63
2023-03-29T11:06:56.765Z,2.15
2023-03-29T11:09:30.265Z,2.20
2023-03-29T11:12:12.266Z,2.20
2023-03-29T11:15:12.890Z,2.03
2023-03-29T11:18:06.020Z,1.80
2023-03-29T11:20:32.760Z,1.60
2023-03-29T11:23:22.553Z,2.03
2023-03-29T11:26:31.188Z,2.05
2023-03-29T11:29:05.348Z,1.83
2023-03-29T11:31:44.186Z,1.23
2023-03-29T11:34:20.270Z,1.20
2023-03-29T11:36:50.668Z,1.70
2023-03-29T11:39:39.510Z,1.50
2023-03-29T11:42:09.591Z,1.70
2023-03-29T11:44:36.360Z,1.83
2023-03-29T11:47:15.069Z,1.65
2023-03-29T11:49:43.482Z,1.73
2023-03-29T11:52:19.445Z,1.67
2023-03-29T11:54:46.167Z,1.73
2023-03-29T11:57:27.554Z,1.67
2023-03-29T12:00:19.727Z,1.77
2023-03-29T12:02:50.116Z,2.83
2023-03-29T12:05:25.508Z,1.50
2023-03-29T12:08:10.389Z,1.67
2023-03-29T12:10:37.967Z,1.53
2023-03-29T12:13:19.347Z,1.35
2023-03-29T12:15:58.848Z,1.58
2023-03-29T12:18:35.752Z,1.75
2023-03-29T12:21:04.119Z,2.03
2023-03-29T12:23:32.013Z,1.60
2023-03-29T12:26:17.366Z,1.45
2023-03-29T12:29:29.270Z,2.05
2023-03-29T12:31:59.569Z,1.48
2023-03-29T12:34:47.987Z,1.77
2023-03-29T12:37:27.450Z,1.40
2023-03-29T12:40:10.766Z,2.08
2023-03-29T12:43:02.434Z,2.10
2023-03-29T12:45:38.423Z,1.52
2023-03-29T12:48:06.537Z,1.85
2023-03-29T12:50:57.337Z,2.13
2023-03-29T12:53:38.887Z,1.85
2023-03-29T12:56:12.460Z,2.13
2023-03-29T12:58:39.545Z,2.28
2023-03-29T13:01:26.755Z,2.20
2023-03-29T13:03:59.825Z,2.67
2023-03-29T13:06:31.832Z,2.45
2023-03-29T13:09:23.058Z,2.13
2023-03-29T13:11:53.796Z,2.25
2023-03-29T13:14:21.259Z,2.58
2023-03-29T13:16:48.066Z,2.10
2023-03-29T13:19:20.590Z,2.30
2023-03-29T13:21:56.058Z,2.13
2023-03-29T13:24:50.146Z,2.33
2023-03-29T13:27:56.294Z,1.98
2023-03-29T13:31:00.549Z,1.70
2023-03-29T13:33:55.534Z,1.80
2023-03-29T13:36:33.164Z,2.08
2023-03-29T13:39:05.380Z,1.70
2023-03-29T13:41:39.105Z,2.00
2023-03-29T13:44:27.871Z,1.90
2023-03-29T13:47:19.508Z,1.65
2023-03-29T13:49:58.171Z,2.13
2023-03-29T13:52:42.926Z,2.25
2023-03-29T13:55:21.977Z,2.30
2023-03-29T13:58:16.274Z,2.50
2023-03-29T14:00:48.361Z,2.33
2023-03-29T14:03:16.262Z,2.60
2023-03-29T14:05:47.772Z,2.25
2023-03-29T14:08:26.727Z,2.20
2023-03-29T14:10:53.652Z,1.80
2023-03-29T14:13:24.502Z,2.00
2023-03-29T14:15:57.350Z,2.15
2023-03-29T14:18:25.703Z,2.03
2023-03-29T14:20:55.098Z,2.33
2023-03-29T14:23:33.279Z,2.47
2023-03-29T14:26:22.584Z,2.00
2023-03-29T14:28:51.282Z,2.35
2023-03-29T14:31:23.322Z,2.65
2023-03-29T14:33:53.750Z,2.42
2023-03-29T14:36:21.326Z,2.47
2023-03-29T14:38:53.508Z,2.80
2023-03-29T14:41:22.038Z,2.50
2023-03-29T14:43:50.755Z,2.75
2023-03-29T14:46:18.937Z,3.13
2023-03-29T14:48:45.883Z,2.47
2023-03-29T14:51:12.613Z,2.38
2023-03-29T14:53:39.715Z,3.45
2023-03-29T14:56:06.955Z,2.47
2023-03-29T14:58:36.846Z,3.00
2023-03-29T15:01:13.567Z,2.73
2023-03-29T15:04:06.967Z,3.45
2023-03-29T15:06:44.294Z,3.58
2023-03-29T15:09:23.685Z,3.50
2023-03-29T15:11:54.619Z,3.75
2023-03-29T15:14:21.664Z,3.37
2023-03-29T15:16:48.558Z,3.25
2023-03-29T15:19:22.026Z,3.65
2023-03-29T15:21:49.671Z,3.20
2023-03-29T15:24:27.714Z,3.47
2023-03-29T15:27:01.440Z,2.80
2023-03-29T15:29:35.221Z,3.17
2023-03-29T15:32:02.307Z,2.97
2023-03-29T15:34:32.863Z,2.90
2023-03-29T15:37:00.214Z,3.00
2023-03-29T15:39:27.809Z,3.03
2023-03-29T15:41:55.389Z,2.72
2023-03-29T15:44:33.198Z,3.10
2023-03-29T15:47:00.409Z,2.85
2023-03-29T15:49:27.319Z,2.75
2023-03-29T15:51:54.409Z,2.70
2023-03-29T15:54:21.982Z,3.13
2023-03-29T15:56:55.701Z,3.15
2023-03-29T15:59:22.998Z,2.75
2023-03-29T16:01:49.899Z,2.38
2023-03-29T16:04:18.328Z,2.60
2023-03-29T16:06:46.977Z,2.70
2023-03-29T16:09:13.758Z,3.15
2023-03-29T16:11:41.310Z,2.92
2023-03-29T16:14:27.518Z,3.30
2023-03-29T16:17:00.536Z,2.50
2023-03-29T16:19:28.248Z,2.90
2023-03-29T16:21:55.449Z,2.90
2023-03-29T16:24:24.278Z,3.00
2023-03-29T16:26:53.910Z,2.95
2023-03-29T16:29:22.458Z,2.63
2023-03-29T16:31:49.407Z,2.70
2023-03-29T16:34:19.250Z,2.85
2023-03-29T16:36:47.544Z,2.90
2023-03-29T16:39:14.320Z,2.85
2023-03-29T16:41:41.515Z,2.70
2023-03-29T16:44:08.453Z,3.10
2023-03-29T16:46:35.485Z,2.97
2023-03-29T16:49:02.558Z,2.78
2023-03-29T16:51:29.377Z,2.85
2023-03-29T16:53:56.958Z,2.97
2023-03-29T16:56:23.870Z,2.85
2023-03-29T16:58:50.677Z,3.05
2023-03-29T17:01:17.450Z,3.00
2023-03-29T17:03:44.358Z,3.17
2023-03-29T17:06:11.487Z,3.20
2023-03-29T17:08:38.774Z,2.90
2023-03-29T17:11:06.901Z,3.33
2023-03-29T17:13:33.777Z,2.88
2023-03-29T17:16:00.918Z,3.00
2023-03-29T17:18:28.240Z,2.80
2023-03-29T17:20:58.876Z,3.35
2023-03-29T17:23:25.845Z,3.20
2023-03-29T17:25:54.675Z,3.03
2023-03-29T17:28:21.918Z,3.63
2023-03-29T17:30:48.747Z,3.27
2023-03-29T17:33:15.551Z,2.97
2023-03-29T17:35:45.260Z,3.53
2023-03-29T17:38:12.163Z,3.35
2023-03-29T17:40:39.367Z,3.33
2023-03-29T17:43:06.150Z,3.23
2023-03-29T17:45:33.232Z,3.85
2023-03-29T17:48:00.054Z,3.58
2023-03-29T17:50:27.152Z,3.72
2023-03-29T17:52:53.979Z,3.70
2023-03-29T17:55:21.123Z,3.63
2023-03-29T17:57:49.104Z,3.83
2023-03-29T18:00:16.564Z,3.60
2023-03-29T18:02:43.490Z,3.80
2023-03-29T18:05:10.421Z,4.18
2023-03-29T18:07:37.338Z,3.93
2023-03-29T18:10:04.698Z,3.60
2023-03-29T18:12:31.751Z,4.25
2023-03-29T18:14:58.955Z,3.92
2023-03-29T18:17:27.429Z,4.28
2023-03-29T18:19:54.383Z,4.03
2023-03-29T18:22:21.505Z,3.70
2023-03-29T18:24:49.311Z,4.20
2023-03-29T18:27:16.136Z,4.60
2023-03-29T18:29:44.116Z,5.00
2023-03-29T18:32:11.195Z,4.27
2023-03-29T18:34:39.442Z,4.50
2023-03-29T18:37:06.430Z,5.07
2023-03-29T18:39:34.890Z,4.78
2023-03-29T18:42:02.130Z,4.68
2023-03-29T18:44:29.335Z,4.20
2023-03-29T18:46:56.373Z,4.82
2023-03-29T18:49:25.757Z,5.22
2023-03-29T18:51:52.620Z,5.28
2023-03-29T18:54:19.419Z,4.72
2023-03-29T18:56:46.235Z,4.90
2023-03-29T18:59:13.049Z,5.18
2023-03-29T19:01:39.871Z,5.28
2023-03-29T19:04:06.714Z,5.00
2023-03-29T19:06:33.581Z,6.10
2023-03-29T19:09:02.303Z,5.50
2023-03-29T19:11:31.952Z,5.53
2023-03-29T19:13:58.743Z,5.63
2023-03-29T19:16:25.869Z,5.30
2023-03-29T19:18:52.741Z,5.93
2023-03-29T19:21:19.484Z,5.87
2023-03-29T19:23:46.307Z,6.00
2023-03-29T19:26:13.429Z,6.20
2023-03-29T19:28:40.508Z,6.40
2023-03-29T19:31:07.450Z,6.10
2023-03-29T19:33:34.305Z,6.30
2023-03-29T19:36:01.665Z,6.47
2023-03-29T19:38:28.714Z,6.43
2023-03-29T19:40:55.464Z,5.97
2023-03-29T19:43:22.284Z,7.25
2023-03-29T19:45:49.817Z,6.30
2023-03-29T19:48:22.362Z,6.97
2023-03-29T19:50:50.578Z,6.55
2023-03-29T19:53:17.440Z,6.40
2023-03-29T19:55:45.423Z,6.72
2023-03-29T19:58:12.620Z,6.87
2023-03-29T20:00:39.487Z,6.95
2023-03-29T20:03:09.913Z,6.78
2023-03-29T20:05:37.607Z,6.88
2023-03-29T20:08:04.418Z,6.57
2023-03-29T20:10:31.565Z,7.50
2023-03-29T20:12:58.379Z,6.97
2023-03-29T20:15:26.040Z,7.38
2023-03-29T20:17:54.488Z,7.45
2023-03-29T20:20:24.139Z,7.15
2023-03-29T20:22:54.097Z,6.80
2023-03-29T20:25:21.368Z,6.72
2023-03-29T20:27:49.555Z,7.57
2023-03-29T20:30:16.508Z,7.93
2023-03-29T20:32:43.478Z,7.35
2023-03-29T20:35:11.671Z,7.33
2023-03-29T20:37:38.495Z,7.50
2023-03-29T20:40:08.286Z,8.45
2023-03-29T20:42:36.787Z,7.50
2023-03-29T20:45:04.428Z,7.53
2023-03-29T20:47:31.537Z,7.50
2023-03-29T20:49:58.894Z,8.00
2023-03-29T20:52:25.707Z,7.72
2023-03-29T20:54:52.642Z,7.05
2023-03-29T20:57:21.012Z,7.85
2023-03-29T20:59:49.427Z,7.00
2023-03-29T21:02:21.938Z,7.80
2023-03-29T21:04:52.539Z,7.60
2023-03-29T21:07:20.113Z,7.60
2023-03-29T21:09:48.496Z,8.07
2023-03-29T21:12:15.310Z,7.70
2023-03-29T21:14:42.050Z,8.27
2023-03-29T21:17:09.533Z,8.60
2023-03-29T21:19:38.237Z,7.90
2023-03-29T21:22:05.453Z,8.50
2023-03-29T21:24:33.185Z,8.03
2023-03-29T21:27:00.667Z,8.60
2023-03-29T21:29:27.652Z,8.80
2023-03-29T21:31:54.750Z,8.02
2023-03-29T21:34:21.848Z,8.45
2023-03-29T21:36:49.393Z,8.63
2023-03-29T21:39:16.352Z,8.65
2023-03-29T21:41:43.209Z,8.75
2023-03-29T21:44:10.064Z,7.78
2023-03-29T21:46:36.931Z,8.32
2023-03-29T21:49:03.792Z,8.37
2023-03-29T21:51:30.547Z,8.15
2023-03-29T21:53:57.330Z,8.23
2023-03-29T21:56:24.143Z,8.30
2023-03-29T21:58:51.069Z,8.45
2023-03-29T22:01:17.996Z,8.53
2023-03-29T22:03:44.883Z,8.07
2023-03-29T22:06:12.993Z,8.90
2023-03-29T22:08:39.859Z,8.40
2023-03-29T22:11:11.061Z,8.60
2023-03-29T22:13:38.000Z,7.87
2023-03-29T22:16:05.363Z,7.78
2023-03-29T22:18:49.299Z,8.35
2023-03-29T22:21:18.461Z,7.68
2023-03-29T22:23:47.590Z,7.68
2023-03-29T22:26:15.087Z,7.60
2023-03-29T22:28:41.892Z,7.50
2023-03-29T22:31:10.576Z,8.02
2023-03-29T22:33:37.502Z,7.25
2023-03-29T22:36:15.676Z,7.65
2023-03-29T22:38:42.860Z,7.53
2023-03-29T22:41:09.794Z,7.88
2023-03-29T22:43:37.097Z,7.85
2023-03-29T22:46:05.357Z,7.40
2023-03-29T22:48:32.299Z,7.45
2023-03-29T22:50:59.291Z,7.20
2023-03-29T22:53:26.122Z,7.30
2023-03-29T22:55:53.538Z,7.45
2023-03-29T22:58:20.748Z,7.45
2023-03-29T23:00:48.027Z,7.75
2023-03-29T23:03:14.889Z,8.20
2023-03-29T23:05:41.683Z,7.28
2023-03-29T23:08:08.439Z,7.75
2023-03-29T23:10:35.458Z,7.80
2023-03-29T23:13:15.718Z,7.63
2023-03-29T23:15:45.313Z,7.40
2023-03-29T23:18:24.265Z,7.18
2023-03-29T23:20:52.645Z,7.43
2023-03-29T23:23:19.725Z,7.55
2023-03-29T23:25:47.579Z,7.65
2023-03-29T23:28:15.144Z,7.47
2023-03-29T23:30:42.021Z,7.50
2023-03-29T23:33:10.536Z,7.85
2023-03-29T23:35:37.896Z,7.18
2023-03-29T23:38:05.831Z,8.10
2023-03-29T23:40:33.275Z,7.97
2023-03-29T23:43:00.597Z,7.28
2023-03-29T23:45:30.124Z,7.57
2023-03-29T23:47:57.490Z,8.30
2023-03-29T23:50:24.363Z,7.82
2023-03-29T23:52:51.774Z,7.70
2023-03-29T23:55:19.562Z,7.95
2023-03-29T23:57:46.441Z,7.72
